Time;durP1;ratioP1;P1;durP2;ratioP2;P2;SDS_P1;SDS_P2;PMS_P1;PMS_P2;Temp;Humidity;BMP_temperature;BMP_pressure;BME280_temperature;BME280_humidity;BME280_pressure;Samples;Min_cycle;Max_cycle;Signal;HPM_P1;HPM_P2
2022/02/03 00:00:03;;;;;;;42.60;16.43;;;;;;;;;;2080910;28;20176;-61
2022/02/03 00:01:11;;;;;;;33.70;14.93;;;;;;;;;;2080848;28;20550;-58
2022/02/03 00:02:25;;;;;;;37.50;16.77;;;;;;;;;;2079388;28;20238;-59
2022/02/03 00:03:46;;;;;;;39.40;17.70;;;;;;;;;;2078684;28;20266;-59
2022/02/03 00:05:02;;;;;;;39.83;17.40;;;;;;;;;;2078283;28;20160;-56
2022/02/03 00:06:09;;;;;;;34.67;17.53;;;;;;;;;;2079710;28;20577;-57
2022/02/03 00:07:14;;;;;;;39.00;18.60;;;;;;;;;;2079710;28;20306;-58
2022/02/03 00:08:25;;;;;;;44.27;19.77;;;;;;;;;;2080287;28;20204;-56
2022/02/03 00:10:24;;;;;;;36.43;19.27;;;;;;;;;;2079917;28;20180;-56
2022/02/03 00:16:28;;;;;;;38.87;22.03;;;;;;;;;;2077294;28;20619;-55
2022/02/03 00:24:08;;;;;;;38.23;22.80;;;;;;;;;;2081082;28;20187;-57
2022/02/03 00:25:13;;;;;;;43.97;24.53;;;;;;;;;;2080317;28;20172;-57
2022/02/03 00:26:16;;;;;;;43.80;24.40;;;;;;;;;;2094978;22;20223;-57
2022/02/03 00:27:23;;;;;;;38.57;23.97;;;;;;;;;;2093029;28;20171;-60
2022/02/03 00:28:27;;;;;;;44.07;25.13;;;;;;;;;;2084269;28;20175;-62
2022/02/03 00:32:02;;;;;;;47.90;26.33;;;;;;;;;;2093714;28;20687;-63
2022/02/03 00:33:27;;;;;;;47.47;25.30;;;;;;;;;;2093574;28;20198;-64
2022/02/03 00:34:37;;;;;;;42.17;25.83;;;;;;;;;;2089927;28;20182;-63
2022/02/03 00:38:14;;;;;;;48.70;27.20;;;;;;;;;;2093868;28;20163;-63
2022/02/03 00:48:22;;;;;;;49.70;28.47;;;;;;;;;;2094347;28;20159;-62
2022/02/03 00:49:23;;;;;;;44.75;27.58;;;;;;;;;;2091849;28;20166;-62
2022/02/03 00:50:31;;;;;;;47.37;28.27;;;;;;;;;;2092611;28;20642;-63
2022/02/03 00:51:32;;;;;;;44.40;27.30;;;;;;;;;;2093329;28;20179;-63
2022/02/03 00:52:34;;;;;;;51.53;28.30;;;;;;;;;;2094544;28;20711;-61
2022/02/03 00:53:35;;;;;;;52.22;29.00;;;;;;;;;;2094133;28;20564;-60
2022/02/03 00:54:35;;;;;;;46.57;28.47;;;;;;;;;;2093235;28;20258;-64
2022/02/03 00:55:36;;;;;;;48.10;28.73;;;;;;;;;;2094129;28;20171;-60
2022/02/03 00:56:37;;;;;;;52.43;29.70;;;;;;;;;;2093286;28;20585;-61
2022/02/03 00:57:45;;;;;;;48.55;29.88;;;;;;;;;;2093482;28;20607;-58
2022/02/03 00:59:01;;;;;;;54.07;29.20;;;;;;;;;;2092215;28;20176;-64
2022/02/03 01:00:02;;;;;;;53.70;29.57;;;;;;;;;;2094073;28;20228;-62
2022/02/03 01:01:03;;;;;;;54.07;30.50;;;;;;;;;;2093774;28;20596;-59
2022/02/03 01:02:04;;;;;;;60.20;32.05;;;;;;;;;;2093272;28;20260;-63
2022/02/03 01:03:12;;;;;;;55.22;31.08;;;;;;;;;;2095716;28;20194;-60
2022/02/03 01:04:13;;;;;;;53.20;29.45;;;;;;;;;;2093732;28;20175;-63
2022/02/03 01:05:14;;;;;;;53.67;29.75;;;;;;;;;;2096150;28;20623;-62
2022/02/03 01:06:15;;;;;;;55.87;30.13;;;;;;;;;;2095016;28;20195;-63
2022/02/03 01:07:17;;;;;;;55.47;32.63;;;;;;;;;;2089150;28;20167;-61
2022/02/03 01:08:21;;;;;;;48.93;31.20;;;;;;;;;;2086165;28;20197;-60
2022/02/03 01:09:23;;;;;;;61.72;32.47;;;;;;;;;;2094337;28;20179;-63
2022/02/03 01:10:29;;;;;;;56.20;31.23;;;;;;;;;;2092404;28;20176;-62
2022/02/03 01:11:38;;;;;;;64.00;33.17;;;;;;;;;;2089481;28;20183;-62
2022/02/03 01:15:14;;;;;;;69.18;32.65;;;;;;;;;;2094919;28;20178;-64
2022/02/03 01:17:30;;;;;;;59.63;31.60;;;;;;;;;;2086198;28;20259;-62
2022/02/03 01:33:48;;;;;;;67.57;35.60;;;;;;;;;;2096597;28;20187;-60
2022/02/03 01:44:24;;;;;;;68.97;35.63;;;;;;;;;;2081629;28;20612;-61
2022/02/03 01:45:37;;;;;;;58.67;33.53;;;;;;;;;;2080619;28;20274;-61
2022/02/03 01:47:25;;;;;;;62.58;34.85;;;;;;;;;;2094151;28;20190;-64
2022/02/03 01:49:05;;;;;;;66.63;34.10;;;;;;;;;;2093468;28;20190;-63
2022/02/03 01:51:39;;;;;;;71.10;35.00;;;;;;;;;;2087051;28;20175;-65
2022/02/03 01:52:34;;;;;;;64.95;33.42;;;;;;;;;;2094513;28;20547;-63
2022/02/03 01:53:35;;;;;;;74.37;37.63;;;;;;;;;;2096123;28;20171;-63
2022/02/03 01:54:37;;;;;;;72.30;38.73;;;;;;;;;;2095189;28;20204;-63
2022/02/03 01:55:39;;;;;;;84.40;38.83;;;;;;;;;;2094188;28;20174;-63
2022/02/03 01:56:41;;;;;;;79.80;39.83;;;;;;;;;;2095414;28;20197;-62
2022/02/03 01:57:41;;;;;;;68.80;36.88;;;;;;;;;;2093480;28;20174;-61
2022/02/03 01:58:45;;;;;;;74.88;39.28;;;;;;;;;;2096115;28;20179;-60
2022/02/03 01:59:51;;;;;;;89.47;40.53;;;;;;;;;;2095423;28;20254;-59
2022/02/03 02:00:59;;;;;;;80.30;40.20;;;;;;;;;;2088522;28;20543;-62
2022/02/03 02:02:00;;;;;;;75.60;39.30;;;;;;;;;;2097641;28;20183;-62
2022/02/03 02:03:13;;;;;;;82.47;41.37;;;;;;;;;;2091804;28;20182;-63
2022/02/03 02:04:28;;;;;;;82.60;40.20;;;;;;;;;;2095862;28;20550;-63
2022/02/03 02:05:47;;;;;;;80.25;39.83;;;;;;;;;;2094915;28;20270;-60
2022/02/03 02:07:01;;;;;;;84.70;41.13;;;;;;;;;;2097857;28;20183;-61
2022/02/03 02:08:07;;;;;;;80.90;40.60;;;;;;;;;;2090821;28;20187;-61
2022/02/03 02:09:26;;;;;;;79.70;40.63;;;;;;;;;;2094623;28;20229;-61
2022/02/03 02:12:15;;;;;;;77.60;37.53;;;;;;;;;;2093709;28;20191;-63
2022/02/03 02:14:00;;;;;;;84.87;40.03;;;;;;;;;;2095116;28;20699;-62
2022/02/03 02:19:24;;;;;;;87.33;40.20;;;;;;;;;;2095174;28;20175;-64
2022/02/03 02:40:04;;;;;;;89.40;39.67;;;;;;;;;;2097028;28;20171;-59
2022/02/03 02:42:34;;;;;;;88.95;39.75;;;;;;;;;;2096060;28;20186;-63
2022/02/03 02:43:55;;;;;;;89.63;41.17;;;;;;;;;;2095338;28;20595;-63
2022/02/03 02:45:01;;;;;;;100.55;42.75;;;;;;;;;;2096054;28;20202;-65
2022/02/03 02:46:01;;;;;;;88.80;41.27;;;;;;;;;;2093528;28;20182;-62
2022/02/03 02:47:04;;;;;;;86.30;40.97;;;;;;;;;;2095850;28;20195;-62
2022/02/03 02:48:23;;;;;;;92.00;40.55;;;;;;;;;;2097032;28;20182;-62
2022/02/03 02:49:48;;;;;;;89.97;40.55;;;;;;;;;;2095077;28;20196;-61
2022/02/03 02:50:59;;;;;;;92.82;39.55;;;;;;;;;;2097349;28;20171;-63
2022/02/03 02:52:07;;;;;;;82.70;38.27;;;;;;;;;;2093698;28;20159;-64
2022/02/03 02:53:30;;;;;;;82.25;37.22;;;;;;;;;;2096161;28;20274;-63
2022/02/03 03:02:59;;;;;;;75.50;35.67;;;;;;;;;;2093736;28;20170;-62
2022/02/03 03:04:30;;;;;;;72.80;34.38;;;;;;;;;;2094330;28;20228;-64
2022/02/03 03:32:38;;;;;;;119.73;46.13;;;;;;;;;;2067296;28;20185;-62
2022/02/03 03:33:54;;;;;;;114.47;44.20;;;;;;;;;;2067319;28;20185;-62
2022/02/03 03:35:31;;;;;;;125.93;49.08;;;;;;;;;;2073250;28;20175;-61
2022/02/03 03:36:32;;;;;;;125.38;47.08;;;;;;;;;;2088723;28;20886;-60
2022/02/03 03:38:45;;;;;;;125.97;50.20;;;;;;;;;;2094425;28;20232;-62
2022/02/03 03:39:48;;;;;;;133.00;49.08;;;;;;;;;;2094368;28;20202;-60
2022/02/03 03:40:51;;;;;;;122.80;50.97;;;;;;;;;;2094826;28;20178;-61
2022/02/03 03:41:53;;;;;;;125.63;50.40;;;;;;;;;;2086497;28;20634;-59
2022/02/03 03:43:04;;;;;;;117.85;48.60;;;;;;;;;;2091714;28;20570;-60
2022/02/03 03:44:07;;;;;;;142.68;52.05;;;;;;;;;;2092931;28;20545;-62
2022/02/03 03:45:08;;;;;;;121.13;50.03;;;;;;;;;;2095362;28;20171;-62
2022/02/03 03:46:15;;;;;;;129.77;49.95;;;;;;;;;;2092149;28;20284;-56
2022/02/03 03:47:19;;;;;;;142.15;52.33;;;;;;;;;;2093767;28;20228;-61
2022/02/03 03:48:20;;;;;;;122.70;52.60;;;;;;;;;;2091682;28;20526;-59
2022/02/03 03:49:30;;;;;;;130.55;52.83;;;;;;;;;;2094886;28;20176;-64
2022/02/03 03:50:32;;;;;;;122.75;49.38;;;;;;;;;;2092829;28;20194;-61
2022/02/03 03:51:39;;;;;;;127.13;49.53;;;;;;;;;;2094076;28;20631;-62
2022/02/03 03:53:04;;;;;;;136.20;52.92;;;;;;;;;;2095517;28;20297;-60
2022/02/03 03:54:08;;;;;;;127.97;50.95;;;;;;;;;;2092950;28;20175;-50
2022/02/03 03:55:20;;;;;;;128.98;53.33;;;;;;;;;;2094664;28;20167;-62
2022/02/03 03:56:33;;;;;;;123.70;47.28;;;;;;;;;;2101494;28;20194;-61
2022/02/03 04:31:11;;;;;;;131.40;52.65;;;;;;;;;;2084100;28;20551;-57
2022/02/03 04:35:25;;;;;;;136.63;55.17;;;;;;;;;;2093904;28;20183;-62
2022/02/03 04:36:55;;;;;;;132.52;51.58;;;;;;;;;;2093812;28;20563;-60
2022/02/03 04:41:46;;;;;;;130.70;52.33;;;;;;;;;;2074248;28;20234;-63
2022/02/03 05:05:33;;;;;;;125.97;55.35;;;;;;;;;;2093866;28;20682;-61
2022/02/03 05:06:34;;;;;;;125.63;57.40;;;;;;;;;;2095693;28;20756;-58
2022/02/03 05:09:14;;;;;;;133.25;57.45;;;;;;;;;;2093821;28;20177;-59
2022/02/03 05:11:38;;;;;;;127.83;57.63;;;;;;;;;;2093427;28;20166;-62
2022/02/03 05:15:02;;;;;;;130.27;55.10;;;;;;;;;;2072618;28;20645;-63
2022/02/03 05:17:08;;;;;;;131.07;58.65;;;;;;;;;;2095081;28;20187;-62
2022/02/03 05:23:16;;;;;;;128.80;59.70;;;;;;;;;;2095467;28;20221;-61
2022/02/03 05:26:00;;;;;;;133.45;60.47;;;;;;;;;;2095512;28;20792;-61
2022/02/03 05:41:57;;;;;;;134.30;63.20;;;;;;;;;;2097717;28;20558;-63
2022/02/03 05:43:18;;;;;;;147.15;67.20;;;;;;;;;;2070268;28;20181;-61
2022/02/03 05:46:18;;;;;;;141.27;64.40;;;;;;;;;;2072441;28;20183;-62
2022/02/03 06:01:11;;;;;;;142.52;64.20;;;;;;;;;;2093964;28;20206;-62
2022/02/03 06:05:55;;;;;;;146.70;64.18;;;;;;;;;;2094484;28;20214;-61
2022/02/03 06:07:27;;;;;;;138.52;66.40;;;;;;;;;;2094329;28;20286;-62
2022/02/03 06:08:36;;;;;;;133.45;60.85;;;;;;;;;;2096012;28;20170;-63
2022/02/03 06:13:32;;;;;;;140.80;66.18;;;;;;;;;;2094735;28;20705;-60
2022/02/03 06:14:40;;;;;;;133.15;60.90;;;;;;;;;;2094576;28;20167;-62
2022/02/03 06:15:51;;;;;;;134.90;62.78;;;;;;;;;;2095536;28;20178;-61
2022/02/03 06:17:16;;;;;;;131.15;62.55;;;;;;;;;;2095239;28;20164;-60
2022/02/03 06:23:20;;;;;;;122.65;60.42;;;;;;;;;;2094695;28;20330;-61
2022/02/03 06:27:43;;;;;;;115.97;55.97;;;;;;;;;;2086117;28;20533;-57
2022/02/03 06:28:48;;;;;;;127.45;58.72;;;;;;;;;;2080506;28;20219;-57
2022/02/03 06:29:52;;;;;;;127.10;60.00;;;;;;;;;;2072430;28;20177;-55
2022/02/03 06:30:52;;;;;;;118.03;58.03;;;;;;;;;;2078960;28;21659;-59
2022/02/03 06:31:53;;;;;;;126.70;59.40;;;;;;;;;;2078294;28;20176;-56
2022/02/03 06:32:53;;;;;;;115.35;57.25;;;;;;;;;;2081533;28;20242;-59
2022/02/03 06:33:54;;;;;;;108.07;51.97;;;;;;;;;;2081177;28;20177;-58
2022/02/03 06:34:54;;;;;;;114.55;55.95;;;;;;;;;;2080247;28;20200;-58
2022/02/03 06:35:55;;;;;;;120.18;56.50;;;;;;;;;;2078959;28;20203;-57
2022/02/03 06:36:55;;;;;;;103.57;52.90;;;;;;;;;;2080917;28;20532;-57
2022/02/03 06:37:55;;;;;;;103.82;50.53;;;;;;;;;;2078278;28;20164;-58
2022/02/03 06:38:56;;;;;;;107.28;53.88;;;;;;;;;;2071496;28;20561;-57
2022/02/03 06:39:56;;;;;;;109.05;54.83;;;;;;;;;;2074212;28;20189;-59
2022/02/03 06:40:56;;;;;;;105.75;52.35;;;;;;;;;;2081572;28;20268;-56
2022/02/03 06:41:59;;;;;;;109.72;52.75;;;;;;;;;;2079384;28;20250;-60
2022/02/03 06:42:59;;;;;;;102.85;52.05;;;;;;;;;;2082462;28;20218;-58
2022/02/03 06:43:59;;;;;;;101.50;50.28;;;;;;;;;;2081464;28;20188;-58
2022/02/03 06:45:11;;;;;;;99.60;50.20;;;;;;;;;;2084272;28;20177;-55
2022/02/03 06:46:12;;;;;;;95.22;50.60;;;;;;;;;;2084251;28;20176;-58
2022/02/03 06:47:28;;;;;;;99.65;52.30;;;;;;;;;;2081544;28;20184;-54
2022/02/03 06:48:30;;;;;;;95.55;49.38;;;;;;;;;;2080374;28;20176;-60
2022/02/03 06:49:44;;;;;;;90.90;48.90;;;;;;;;;;2083356;28;20168;-57
2022/02/03 06:50:50;;;;;;;86.43;46.95;;;;;;;;;;2082317;28;20173;-58
2022/02/03 06:52:42;;;;;;;92.70;49.17;;;;;;;;;;2080506;28;20173;-56
2022/02/03 06:53:18;;;;;;;85.03;42.47;;;;;;;;;;2078743;28;20277;-58
2022/02/03 06:54:32;;;;;;;83.57;45.30;;;;;;;;;;2077807;28;20215;-57
2022/02/03 06:56:00;;;;;;;88.70;46.00;;;;;;;;;;2076410;28;20192;-56
2022/02/03 06:57:04;;;;;;;95.20;48.33;;;;;;;;;;2083641;28;20176;-59
2022/02/03 06:58:34;;;;;;;83.57;46.08;;;;;;;;;;2079487;28;20184;-58
2022/02/03 06:59:36;;;;;;;86.40;45.92;;;;;;;;;;2082281;28;20196;-55
2022/02/03 07:00:42;;;;;;;89.22;44.33;;;;;;;;;;2083269;28;20516;-59
2022/02/03 07:01:44;;;;;;;84.72;46.53;;;;;;;;;;2078788;28;20165;-58
2022/02/03 07:02:47;;;;;;;84.15;44.92;;;;;;;;;;2082496;28;20184;-57
2022/02/03 07:03:55;;;;;;;80.25;43.45;;;;;;;;;;2080787;28;20207;-57
2022/02/03 07:04:57;;;;;;;80.80;44.90;;;;;;;;;;2083402;28;20542;-56
2022/02/03 07:05:57;;;;;;;83.50;44.60;;;;;;;;;;2081571;28;20239;-58
2022/02/03 07:06:59;;;;;;;82.45;44.38;;;;;;;;;;2082847;28;20223;-57
2022/02/03 07:08:00;;;;;;;81.43;42.47;;;;;;;;;;2083868;28;20199;-57
2022/02/03 07:09:01;;;;;;;78.07;42.65;;;;;;;;;;2084063;28;20181;-57
2022/02/03 07:10:01;;;;;;;79.85;43.30;;;;;;;;;;2085533;28;20183;-56
2022/02/03 07:11:03;;;;;;;76.72;41.47;;;;;;;;;;2083967;28;20180;-55
2022/02/03 07:12:06;;;;;;;62.67;35.65;;;;;;;;;;2082022;28;20184;-55
2022/02/03 07:13:07;;;;;;;73.55;40.75;;;;;;;;;;2084634;28;20447;-58
2022/02/03 07:14:09;;;;;;;82.32;44.33;;;;;;;;;;2081168;28;20176;-56
2022/02/03 07:15:10;;;;;;;62.97;35.72;;;;;;;;;;2083549;28;20218;-57
2022/02/03 07:16:11;;;;;;;70.45;37.83;;;;;;;;;;2070798;28;20625;-58
2022/02/03 07:17:11;;;;;;;74.75;40.72;;;;;;;;;;2072151;28;20169;-59
2022/02/03 07:18:12;;;;;;;81.88;42.28;;;;;;;;;;2078190;28;20181;-57
2022/02/03 07:19:13;;;;;;;74.72;42.08;;;;;;;;;;2081668;28;20244;-58
2022/02/03 07:20:15;;;;;;;70.03;40.17;;;;;;;;;;2081819;28;20204;-58
2022/02/03 07:21:15;;;;;;;76.85;40.47;;;;;;;;;;2081457;28;20640;-59
2022/02/03 07:22:16;;;;;;;63.28;34.53;;;;;;;;;;2080425;28;20240;-56
2022/02/03 07:23:16;;;;;;;66.63;38.90;;;;;;;;;;2073033;28;20169;-57
2022/02/03 07:24:16;;;;;;;63.17;36.92;;;;;;;;;;2073312;28;20750;-58
2022/02/03 07:25:17;;;;;;;71.10;38.67;;;;;;;;;;2076992;28;20645;-57
2022/02/03 07:26:17;;;;;;;65.10;36.85;;;;;;;;;;2081112;28;20196;-58
2022/02/03 07:27:18;;;;;;;62.05;36.13;;;;;;;;;;2076197;28;20181;-56
2022/02/03 07:28:18;;;;;;;56.30;31.08;;;;;;;;;;2076031;28;20169;-59
2022/02/03 07:29:18;;;;;;;47.70;26.88;;;;;;;;;;2080694;28;20679;-64
2022/02/03 07:30:19;;;;;;;58.10;34.20;;;;;;;;;;2079291;28;20172;-57
2022/02/03 07:31:19;;;;;;;54.53;33.25;;;;;;;;;;2080581;28;20180;-62
2022/02/03 07:32:23;;;;;;;57.40;33.13;;;;;;;;;;2082920;28;20180;-59
2022/02/03 07:33:24;;;;;;;51.00;29.25;;;;;;;;;;2079941;28;20169;-55
2022/02/03 07:34:24;;;;;;;55.20;31.95;;;;;;;;;;2081949;28;20168;-57
2022/02/03 07:35:24;;;;;;;52.80;30.58;;;;;;;;;;2082898;28;20365;-57
2022/02/03 07:36:25;;;;;;;53.97;31.27;;;;;;;;;;2076437;28;20193;-55
2022/02/03 07:37:27;;;;;;;53.42;32.25;;;;;;;;;;2081394;28;20187;-55
2022/02/03 07:38:27;;;;;;;52.40;31.42;;;;;;;;;;2082567;28;20168;-56
2022/02/03 07:39:28;;;;;;;53.40;31.23;;;;;;;;;;2078868;28;20165;-56
2022/02/03 07:40:28;;;;;;;56.00;33.63;;;;;;;;;;2082338;28;20172;-55
2022/02/03 07:41:28;;;;;;;48.95;30.70;;;;;;;;;;2084263;28;20180;-56
2022/02/03 07:42:29;;;;;;;56.13;31.77;;;;;;;;;;2077556;28;20169;-56
2022/02/03 07:43:29;;;;;;;51.60;30.17;;;;;;;;;;2082070;28;20180;-57
2022/02/03 07:44:29;;;;;;;52.25;32.15;;;;;;;;;;2078565;28;20279;-55
2022/02/03 07:45:31;;;;;;;48.55;30.50;;;;;;;;;;2081680;28;20230;-55
2022/02/03 07:46:31;;;;;;;46.03;26.50;;;;;;;;;;2073877;28;20283;-59
2022/02/03 07:47:32;;;;;;;36.85;23.83;;;;;;;;;;2074290;28;20272;-58
2022/02/03 07:48:32;;;;;;;40.67;24.95;;;;;;;;;;2076661;28;20255;-55
2022/02/03 07:49:34;;;;;;;42.08;25.55;;;;;;;;;;2075492;28;20260;-59
2022/02/03 07:50:35;;;;;;;37.35;24.67;;;;;;;;;;2076156;28;20518;-60
2022/02/03 07:51:35;;;;;;;40.33;24.98;;;;;;;;;;2075818;28;20247;-60
2022/02/03 07:52:35;;;;;;;37.58;20.83;;;;;;;;;;2074094;28;20176;-59
2022/02/03 07:53:36;;;;;;;39.33;24.55;;;;;;;;;;2074454;28;20161;-58
2022/02/03 07:54:38;;;;;;;34.80;24.15;;;;;;;;;;2074445;28;20188;-59
2022/02/03 07:55:38;;;;;;;38.67;24.80;;;;;;;;;;2074086;28;20515;-59
2022/02/03 07:56:38;;;;;;;33.38;22.00;;;;;;;;;;2074384;28;20236;-60
2022/02/03 07:57:43;;;;;;;33.97;22.98;;;;;;;;;;2075022;28;20188;-57
2022/02/03 07:58:43;;;;;;;33.95;21.55;;;;;;;;;;2074994;28;20172;-58
2022/02/03 07:59:43;;;;;;;34.50;22.45;;;;;;;;;;2075761;28;20390;-60
2022/02/03 08:00:44;;;;;;;33.33;22.05;;;;;;;;;;2073752;28;20173;-58
2022/02/03 08:01:44;;;;;;;34.15;22.63;;;;;;;;;;2073818;28;20621;-59
2022/02/03 08:02:45;;;;;;;31.70;21.77;;;;;;;;;;2075626;28;20385;-59
2022/02/03 08:03:45;;;;;;;35.22;21.60;;;;;;;;;;2075110;28;20519;-59
2022/02/03 08:04:47;;;;;;;30.98;20.67;;;;;;;;;;2074977;28;20192;-55
2022/02/03 08:05:54;;;;;;;29.75;19.77;;;;;;;;;;2075229;28;20177;-59
2022/02/03 08:06:55;;;;;;;31.75;20.55;;;;;;;;;;2075310;28;20153;-57
2022/02/03 08:08:05;;;;;;;30.13;18.33;;;;;;;;;;2075057;28;20216;-59
2022/02/03 08:09:10;;;;;;;30.08;18.52;;;;;;;;;;2075662;28;20247;-59
2022/02/03 08:10:28;;;;;;;25.67;17.23;;;;;;;;;;2074680;28;20173;-58
2022/02/03 08:11:34;;;;;;;27.35;19.42;;;;;;;;;;2075108;28;20158;-58
2022/02/03 08:12:36;;;;;;;29.10;20.88;;;;;;;;;;2074184;28;20204;-58
2022/02/03 08:13:47;;;;;;;25.83;18.25;;;;;;;;;;2066633;28;20618;-62
2022/02/03 08:14:50;;;;;;;28.92;21.05;;;;;;;;;;2080854;28;20264;-59
2022/02/03 08:15:58;;;;;;;29.35;19.48;;;;;;;;;;2076067;28;20189;-59
2022/02/03 08:17:05;;;;;;;30.25;20.20;;;;;;;;;;2077496;28;20246;-60
2022/02/03 08:18:10;;;;;;;27.42;18.77;;;;;;;;;;2080328;28;20669;-60
2022/02/03 08:20:17;;;;;;;29.20;17.98;;;;;;;;;;2080175;28;20663;-59
2022/02/03 08:21:19;;;;;;;26.50;17.33;;;;;;;;;;2078329;28;20173;-57
2022/02/03 08:22:25;;;;;;;25.35;18.75;;;;;;;;;;2080307;28;20245;-57
2022/02/03 08:24:50;;;;;;;26.20;17.42;;;;;;;;;;2082558;28;20172;-60
2022/02/03 08:26:02;;;;;;;24.73;16.45;;;;;;;;;;2076423;28;20156;-59
2022/02/03 08:27:23;;;;;;;20.48;14.20;;;;;;;;;;2082921;28;20207;-60
2022/02/03 08:32:10;;;;;;;17.90;10.68;;;;;;;;;;2081107;28;20180;-57
2022/02/03 08:32:59;;;;;;;15.75;12.05;;;;;;;;;;2076661;28;20719;-58
2022/02/03 08:34:00;;;;;;;14.85;11.40;;;;;;;;;;2081648;28;20180;-59
2022/02/03 08:36:06;;;;;;;13.90;10.57;;;;;;;;;;2082078;28;20160;-60
2022/02/03 08:37:06;;;;;;;15.88;10.90;;;;;;;;;;2082431;28;20182;-60
2022/02/03 08:39:10;;;;;;;14.47;11.70;;;;;;;;;;2080512;28;20237;-60
2022/02/03 08:40:15;;;;;;;14.45;11.48;;;;;;;;;;2078991;28;20175;-60
2022/02/03 08:41:15;;;;;;;15.80;12.68;;;;;;;;;;2082282;28;20179;-59
2022/02/03 08:42:16;;;;;;;15.73;9.48;;;;;;;;;;2082890;28;20191;-59
2022/02/03 08:43:16;;;;;;;15.27;9.90;;;;;;;;;;2083349;28;20227;-59
2022/02/03 08:44:17;;;;;;;13.70;11.03;;;;;;;;;;2078037;28;20188;-58
2022/02/03 08:45:17;;;;;;;18.70;12.70;;;;;;;;;;2080326;28;20513;-58
2022/02/03 08:46:18;;;;;;;15.52;12.00;;;;;;;;;;2083047;28;20206;-63
2022/02/03 08:47:18;;;;;;;15.05;11.95;;;;;;;;;;2078577;28;20188;-59
2022/02/03 08:48:18;;;;;;;16.80;12.82;;;;;;;;;;2075890;28;20593;-60
2022/02/03 08:49:22;;;;;;;15.40;11.35;;;;;;;;;;2075674;28;20176;-60
2022/02/03 08:50:23;;;;;;;15.17;12.03;;;;;;;;;;2081228;28;20172;-58
2022/02/03 08:51:23;;;;;;;16.03;11.90;;;;;;;;;;2078488;28;20707;-57
2022/02/03 08:52:33;;;;;;;15.98;12.65;;;;;;;;;;2080401;28;20191;-59
2022/02/03 08:53:41;;;;;;;17.65;12.88;;;;;;;;;;2077883;28;20180;-58
2022/02/03 08:54:49;;;;;;;15.02;11.85;;;;;;;;;;2082097;28;20177;-58
2022/02/03 08:57:04;;;;;;;13.67;10.73;;;;;;;;;;2082447;28;20196;-60
2022/02/03 09:40:10;;;;;;;8.18;7.10;;;;;;;;;;2079321;28;20168;-59
2022/02/03 09:41:02;;;;;;;8.52;7.65;;;;;;;;;;2078299;28;20258;-58
2022/02/03 09:50:32;;;;;;;12.60;8.00;;;;;;;;;;2076021;28;20168;-60
2022/02/03 09:51:48;;;;;;;11.43;7.95;;;;;;;;;;2078048;28;20173;-58
2022/02/03 09:53:27;;;;;;;10.45;8.90;;;;;;;;;;2075612;28;20187;-61
2022/02/03 09:54:34;;;;;;;9.90;8.38;;;;;;;;;;2078293;28;20172;-61
2022/02/03 09:58:12;;;;;;;15.23;8.80;;;;;;;;;;2070811;28;20181;-60
2022/02/03 09:59:15;;;;;;;10.57;8.55;;;;;;;;;;2082183;28;20184;-60
2022/02/03 10:00:30;;;;;;;12.35;9.35;;;;;;;;;;2078728;28;20165;-58
2022/02/03 10:01:39;;;;;;;12.27;8.48;;;;;;;;;;2082058;28;20175;-60
2022/02/03 10:02:54;;;;;;;10.70;7.20;;;;;;;;;;2075620;28;20165;-58
2022/02/03 10:04:09;;;;;;;10.93;8.77;;;;;;;;;;2076821;28;20256;-61
2022/02/03 10:05:31;;;;;;;11.57;8.55;;;;;;;;;;2079174;28;20584;-58
2022/02/03 10:06:38;;;;;;;11.70;8.70;;;;;;;;;;2077378;28;20270;-60
2022/02/03 10:07:39;;;;;;;9.98;8.10;;;;;;;;;;2082572;28;20187;-58
2022/02/03 10:08:49;;;;;;;13.07;8.60;;;;;;;;;;2069156;28;20165;-58
2022/02/03 10:09:52;;;;;;;9.63;8.05;;;;;;;;;;2073856;28;20260;-59
2022/02/03 10:11:09;;;;;;;11.73;8.67;;;;;;;;;;2077422;28;20172;-58
2022/02/03 10:12:10;;;;;;;9.68;8.68;;;;;;;;;;2079318;28;20176;-59
2022/02/03 10:13:15;;;;;;;9.13;7.93;;;;;;;;;;2076854;28;20696;-59
2022/02/03 10:14:15;;;;;;;10.57;8.18;;;;;;;;;;2082765;28;20266;-56
2022/02/03 10:15:17;;;;;;;11.32;8.38;;;;;;;;;;2078149;28;20185;-61
2022/02/03 10:16:40;;;;;;;10.75;8.70;;;;;;;;;;2076607;28;20195;-59
2022/02/03 10:17:42;;;;;;;9.45;8.55;;;;;;;;;;2081240;28;20184;-59
2022/02/03 10:18:42;;;;;;;9.73;8.73;;;;;;;;;;2074459;28;20222;-57
2022/02/03 10:19:50;;;;;;;12.07;8.60;;;;;;;;;;2074124;28;20271;-59
2022/02/03 10:20:50;;;;;;;11.40;8.68;;;;;;;;;;2074532;28;20149;-58
2022/02/03 10:21:51;;;;;;;9.32;7.88;;;;;;;;;;2074791;28;20165;-58
2022/02/03 10:22:55;;;;;;;14.63;9.00;;;;;;;;;;2081680;28;20233;-56
2022/02/03 10:24:00;;;;;;;10.23;9.13;;;;;;;;;;2080637;28;20644;-59
2022/02/03 10:25:09;;;;;;;10.23;8.40;;;;;;;;;;2079986;28;20180;-58
2022/02/03 10:26:09;;;;;;;14.95;7.75;;;;;;;;;;2078671;28;20276;-58
2022/02/03 10:27:24;;;;;;;9.13;8.23;;;;;;;;;;2081676;28;20172;-57
2022/02/03 10:28:24;;;;;;;11.90;9.50;;;;;;;;;;2076937;28;20346;-58
2022/02/03 10:29:30;;;;;;;8.82;7.43;;;;;;;;;;2079881;28;20826;-59
2022/02/03 10:30:39;;;;;;;11.43;8.50;;;;;;;;;;2082805;28;20252;-58
2022/02/03 10:31:40;;;;;;;12.90;9.63;;;;;;;;;;2078493;28;20787;-59
2022/02/03 10:32:43;;;;;;;13.40;9.32;;;;;;;;;;2074136;28;20549;-58
2022/02/03 10:33:44;;;;;;;12.60;9.07;;;;;;;;;;2073614;28;20252;-58
2022/02/03 10:34:44;;;;;;;11.35;9.35;;;;;;;;;;2081519;28;20526;-57
2022/02/03 10:35:56;;;;;;;8.73;7.72;;;;;;;;;;2081392;28;20215;-58
2022/02/03 10:37:12;;;;;;;11.63;8.60;;;;;;;;;;2074859;28;20169;-58
2022/02/03 10:40:54;;;;;;;11.02;8.40;;;;;;;;;;2081579;28;20195;-57
2022/02/03 10:42:12;;;;;;;10.15;7.47;;;;;;;;;;2075656;28;20696;-57
2022/02/03 10:44:20;;;;;;;10.53;8.90;;;;;;;;;;2079965;28;20173;-57
2022/02/03 10:45:14;;;;;;;13.05;9.35;;;;;;;;;;2070874;28;20219;-58
2022/02/03 10:50:54;;;;;;;11.73;10.40;;;;;;;;;;2080464;28;20247;-58
2022/02/03 10:53:26;;;;;;;16.83;9.57;;;;;;;;;;2073983;28;20193;-56
2022/02/03 10:57:16;;;;;;;11.77;7.93;;;;;;;;;;2074327;28;20192;-57
2022/02/03 11:01:22;;;;;;;12.98;10.20;;;;;;;;;;2066081;28;20170;-59
2022/02/03 11:02:33;;;;;;;13.65;10.02;;;;;;;;;;2080156;28;20169;-59
2022/02/03 11:03:53;;;;;;;14.68;10.50;;;;;;;;;;2082530;28;20224;-59
2022/02/03 11:06:56;;;;;;;13.43;9.68;;;;;;;;;;2080582;28;20235;-59
2022/02/03 11:10:23;;;;;;;14.40;10.50;;;;;;;;;;2082679;28;20199;-59
2022/02/03 11:11:23;;;;;;;11.25;10.05;;;;;;;;;;2076789;28;20176;-61
2022/02/03 11:12:25;;;;;;;12.45;10.70;;;;;;;;;;2075132;28;20235;-61
2022/02/03 11:13:29;;;;;;;12.82;9.60;;;;;;;;;;2075319;28;20752;-59
2022/02/03 11:14:31;;;;;;;13.60;10.43;;;;;;;;;;2074313;28;20688;-58
2022/02/03 11:15:32;;;;;;;11.05;9.77;;;;;;;;;;2080757;28;20211;-59
2022/02/03 11:16:37;;;;;;;12.32;10.80;;;;;;;;;;2075882;28;20268;-57
2022/02/03 11:17:38;;;;;;;16.55;11.68;;;;;;;;;;2081055;28;20644;-57
2022/02/03 11:18:39;;;;;;;14.27;10.55;;;;;;;;;;2082579;28;20212;-58
2022/02/03 11:19:40;;;;;;;12.98;10.43;;;;;;;;;;2081749;28;20222;-59
2022/02/03 11:20:43;;;;;;;11.65;10.48;;;;;;;;;;2080818;28;20173;-56
2022/02/03 11:21:49;;;;;;;11.60;10.35;;;;;;;;;;2072764;28;20181;-60
2022/02/03 11:24:24;;;;;;;12.93;11.27;;;;;;;;;;2057813;28;20698;-58
2022/02/03 11:25:43;;;;;;;12.05;10.27;;;;;;;;;;2078805;28;20175;-57
2022/02/03 11:28:07;;;;;;;12.20;10.32;;;;;;;;;;2081218;28;20567;-57
2022/02/03 11:37:49;;;;;;;15.60;12.02;;;;;;;;;;2081522;28;20196;-57
2022/02/03 11:43:18;;;;;;;19.98;13.88;;;;;;;;;;2075418;28;20692;-55
2022/02/03 11:47:54;;;;;;;20.10;14.30;;;;;;;;;;2074007;28;20173;-59
2022/02/03 11:49:22;;;;;;;19.75;13.77;;;;;;;;;;2073185;28;20238;-58
2022/02/03 11:53:17;;;;;;;20.88;15.38;;;;;;;;;;2075594;28;20597;-59
2022/02/03 12:01:59;;;;;;;22.85;17.08;;;;;;;;;;2080094;28;20183;-56
2022/02/03 12:03:25;;;;;;;23.50;17.08;;;;;;;;;;2075502;28;20185;-58
2022/02/03 12:04:49;;;;;;;24.92;16.58;;;;;;;;;;2074893;28;20189;-58
2022/02/03 12:07:30;;;;;;;23.33;17.13;;;;;;;;;;2074573;28;20864;-61
2022/02/03 12:14:46;;;;;;;26.98;17.88;;;;;;;;;;2074480;28;20199;-60
2022/02/03 12:16:07;;;;;;;21.97;15.93;;;;;;;;;;2074763;28;20150;-57
2022/02/03 12:17:47;;;;;;;20.38;14.20;;;;;;;;;;2073975;28;20720;-56
2022/02/03 12:20:11;;;;;;;25.77;15.57;;;;;;;;;;2072964;28;20193;-59
2022/02/03 12:21:23;;;;;;;19.83;15.57;;;;;;;;;;2072993;28;20189;-58
2022/02/03 12:22:44;;;;;;;19.80;15.13;;;;;;;;;;2073102;28;20161;-60
2022/02/03 12:25:11;;;;;;;19.35;15.00;;;;;;;;;;2073012;28;20181;-57
2022/02/03 12:26:22;;;;;;;18.60;14.25;;;;;;;;;;2073569;28;20533;-58
2022/02/03 12:27:50;;;;;;;19.33;14.32;;;;;;;;;;2106007;23;20258;-58
2022/02/03 12:29:01;;;;;;;18.05;14.52;;;;;;;;;;2087476;28;20541;-53
2022/02/03 12:30:07;;;;;;;18.95;15.02;;;;;;;;;;2085346;28;20180;-55